createdAt,value
2018-06-11T00:00:12.470Z,7.37
2018-06-11T00:02:41.017Z,7.73
2018-06-11T00:05:08.887Z,7.00
2018-06-11T00:07:36.644Z,7.67
2018-06-11T00:10:04.686Z,7.40
2018-06-11T00:12:32.792Z,9.63
2018-06-11T00:15:01.549Z,7.30
2018-06-11T00:17:29.387Z,6.60
2018-06-11T00:19:57.494Z,7.53
2018-06-11T00:22:25.305Z,8.27
2018-06-11T00:24:53.584Z,8.90
2018-06-11T00:27:21.363Z,7.73
2018-06-11T00:29:49.271Z,6.63
2018-06-11T00:32:17.224Z,6.23
2018-06-11T00:34:44.965Z,7.20
2018-06-11T00:37:13.196Z,7.30
2018-06-11T00:39:41.112Z,7.37
2018-06-11T00:42:09.753Z,6.60
2018-06-11T00:44:37.682Z,6.50
2018-06-11T00:47:05.494Z,5.60
2018-06-11T00:49:33.489Z,5.33
2018-06-11T00:52:01.446Z,5.03
2018-06-11T00:54:29.996Z,5.30
2018-06-11T00:56:58.620Z,5.30
2018-06-11T00:59:26.424Z,4.50
2018-06-11T01:01:54.864Z,4.90
2018-06-11T01:04:22.806Z,4.97
2018-06-11T01:06:50.803Z,5.10
2018-06-11T01:09:18.687Z,4.43
2018-06-11T01:11:46.865Z,5.07
2018-06-11T01:14:14.704Z,4.97
2018-06-11T01:16:43.964Z,5.87
2018-06-11T01:19:11.909Z,4.90
2018-06-11T01:21:39.761Z,4.40
2018-06-11T01:24:07.604Z,6.07
2018-06-11T01:26:35.358Z,4.23
2018-06-11T01:29:03.086Z,5.17
2018-06-11T01:31:30.862Z,5.10
2018-06-11T01:33:58.739Z,5.90
2018-06-11T01:36:26.506Z,5.67
2018-06-11T01:38:54.493Z,5.60
2018-06-11T01:41:22.436Z,4.77
2018-06-11T01:43:50.341Z,5.53
2018-06-11T01:46:24.925Z,5.37
2018-06-11T01:48:53.736Z,5.27
2018-06-11T01:51:21.681Z,4.93
2018-06-11T01:53:49.712Z,5.50
2018-06-11T01:56:17.580Z,5.50
2018-06-11T01:58:46.580Z,4.83
2018-06-11T02:01:14.372Z,5.20
2018-06-11T02:03:42.244Z,5.10
2018-06-11T02:06:10.179Z,5.07
2018-06-11T02:08:38.066Z,4.97
2018-06-11T02:11:05.967Z,6.00
2018-06-11T02:13:33.757Z,4.93
2018-06-11T02:16:01.666Z,4.77
2018-06-11T02:18:29.425Z,5.63
2018-06-11T02:20:57.298Z,5.47
2018-06-11T02:23:25.062Z,5.13
2018-06-11T02:25:52.928Z,4.80
2018-06-11T02:28:20.708Z,5.30
2018-06-11T02:30:48.722Z,4.77
2018-06-11T02:33:16.637Z,4.70
2018-06-11T02:35:45.591Z,5.90
2018-06-11T02:38:13.528Z,4.90
2018-06-11T02:40:42.117Z,4.70
2018-06-11T02:43:09.949Z,4.30
2018-06-11T02:45:37.662Z,4.77
2018-06-11T02:48:05.765Z,5.43
2018-06-11T02:50:33.707Z,5.10
2018-06-11T02:53:01.732Z,5.80
2018-06-11T02:55:29.695Z,5.87
2018-06-11T02:57:57.481Z,5.33
2018-06-11T03:00:26.243Z,5.27
2018-06-11T03:02:54.033Z,5.10
2018-06-11T03:05:21.884Z,5.60
2018-06-11T03:07:49.688Z,5.50
2018-06-11T03:10:17.484Z,4.80
2018-06-11T03:12:46.182Z,5.57
2018-06-11T03:15:14.657Z,5.43
2018-06-11T03:17:43.272Z,5.43
2018-06-11T03:20:11.256Z,4.80
2018-06-11T03:22:39.255Z,5.20
2018-06-11T03:25:07.025Z,5.60
2018-06-11T03:27:34.911Z,7.60
2018-06-11T03:30:02.825Z,5.73
2018-06-11T03:32:31.636Z,4.90
2018-06-11T03:34:59.395Z,5.27
2018-06-11T03:37:27.982Z,5.33
2018-06-11T03:39:55.944Z,5.20
2018-06-11T03:42:23.829Z,5.20
2018-06-11T03:44:51.588Z,5.67
2018-06-11T03:47:19.599Z,5.80
2018-06-11T03:49:47.588Z,5.53
2018-06-11T03:52:15.552Z,5.73
2018-06-11T03:54:44.112Z,5.17
2018-06-11T03:57:12.752Z,6.03
2018-06-11T03:59:40.704Z,6.23
2018-06-11T04:02:08.521Z,6.10
2018-06-11T04:04:36.338Z,5.50
2018-06-11T04:07:04.396Z,4.50
2018-06-11T04:09:32.142Z,5.60
2018-06-11T04:11:59.905Z,6.07
2018-06-11T04:14:28.278Z,4.90
2018-06-11T04:16:56.039Z,6.73
2018-06-11T04:19:23.871Z,5.03
2018-06-11T04:21:51.668Z,5.53
2018-06-11T04:24:19.518Z,4.83
2018-06-11T04:26:48.061Z,4.73
2018-06-11T04:29:17.365Z,4.50
2018-06-11T04:31:46.096Z,4.67
2018-06-11T04:34:14.057Z,4.07
2018-06-11T04:36:41.809Z,4.57
2018-06-11T04:39:09.830Z,4.20
2018-06-11T04:41:37.775Z,3.20
2018-06-11T04:44:05.673Z,4.13
2018-06-11T04:46:33.612Z,4.60
2018-06-11T04:49:01.243Z,4.20
2018-06-11T04:51:29.070Z,3.57
2018-06-11T04:53:57.027Z,3.83
2018-06-11T04:56:25.664Z,6.07
2018-06-11T04:58:53.644Z,3.20
2018-06-11T05:01:21.588Z,3.63
2018-06-11T05:03:49.455Z,3.10
2018-06-11T05:06:17.950Z,3.50
2018-06-11T05:08:46.375Z,3.43
2018-06-11T05:11:14.260Z,3.40
2018-06-11T05:13:41.911Z,2.47
2018-06-11T05:16:09.725Z,3.30
2018-06-11T05:18:37.695Z,2.80
2018-06-11T05:21:05.728Z,3.33
2018-06-11T05:23:33.516Z,2.73
2018-06-11T05:26:01.188Z,2.73
2018-06-11T05:28:28.983Z,3.40
2018-06-11T05:30:56.978Z,3.07
2018-06-11T05:33:25.263Z,3.00
2018-06-11T05:35:53.217Z,2.80
2018-06-11T05:38:21.821Z,3.10
2018-06-11T05:40:49.638Z,3.70
2018-06-11T05:43:17.368Z,3.37
2018-06-11T05:45:45.392Z,3.30
2018-06-11T05:48:13.318Z,3.87
2018-06-11T05:50:41.372Z,3.00
2018-06-11T05:53:09.372Z,3.57
2018-06-11T05:55:37.168Z,3.00
2018-06-11T05:58:05.303Z,2.83
2018-06-11T06:00:33.240Z,3.30
2018-06-11T06:03:01.261Z,4.97
2018-06-11T06:05:29.197Z,2.90
2018-06-11T06:07:58.353Z,3.33
2018-06-11T06:10:26.916Z,3.13
2018-06-11T06:12:55.286Z,3.00
2018-06-11T06:15:23.960Z,3.40
2018-06-11T06:17:52.245Z,3.53
2018-06-11T06:20:23.027Z,3.50
2018-06-11T06:22:51.619Z,3.23
2018-06-11T06:25:19.427Z,3.00
2018-06-11T06:27:47.324Z,3.10
2018-06-11T06:30:16.375Z,2.90
2018-06-11T06:32:44.299Z,3.77
2018-06-11T06:35:12.304Z,4.47
2018-06-11T06:37:40.243Z,2.80
2018-06-11T06:40:08.110Z,3.30
2018-06-11T06:42:36.496Z,3.33
2018-06-11T06:45:04.677Z,3.00
2018-06-11T06:47:32.326Z,4.27
2018-06-11T06:50:00.140Z,3.97
2018-06-11T06:52:28.072Z,3.80
2018-06-11T06:54:56.121Z,4.13
2018-06-11T06:57:24.017Z,3.60
2018-06-11T06:59:52.023Z,3.50
2018-06-11T07:02:20.283Z,3.23
2018-06-11T07:04:48.738Z,3.70
2018-06-11T07:07:16.379Z,2.97
2018-06-11T07:09:44.212Z,3.17
2018-06-11T07:12:12.048Z,3.20
2018-06-11T07:14:39.797Z,3.30
2018-06-11T07:17:07.823Z,3.00
2018-06-11T07:19:35.711Z,3.13
2018-06-11T07:22:03.331Z,3.37
2018-06-11T07:24:31.113Z,3.63
2018-06-11T07:26:59.169Z,3.70
2018-06-11T07:29:27.080Z,3.80
2018-06-11T07:31:55.080Z,4.10
2018-06-11T07:34:22.893Z,4.23
2018-06-11T07:36:50.729Z,3.37
2018-06-11T07:39:18.652Z,4.07
2018-06-11T07:41:46.540Z,3.60
2018-06-11T07:44:14.302Z,3.90
2018-06-11T07:46:42.351Z,2.97
2018-06-11T07:49:10.132Z,3.40
2018-06-11T07:51:38.630Z,4.17
2018-06-11T07:54:06.645Z,3.13
2018-06-11T07:56:34.991Z,3.97
2018-06-11T07:59:02.749Z,2.70
2018-06-11T08:01:30.560Z,3.27
2018-06-11T08:03:58.509Z,3.90
2018-06-11T08:06:26.401Z,3.07
2018-06-11T08:08:54.496Z,3.30
2018-06-11T08:11:22.438Z,4.30
2018-06-11T08:13:50.321Z,3.40
2018-06-11T08:16:18.093Z,2.70
2018-06-11T08:18:46.095Z,2.23
2018-06-11T08:21:14.021Z,3.17
2018-06-11T08:23:41.869Z,3.63
2018-06-11T08:26:09.965Z,3.27
2018-06-11T08:28:37.897Z,2.10
2018-06-11T08:31:05.929Z,3.40
2018-06-11T08:33:34.533Z,3.37
2018-06-11T08:36:02.492Z,3.17
2018-06-11T08:38:30.381Z,3.90
2018-06-11T08:40:58.288Z,3.47
2018-06-11T08:43:26.139Z,3.43
2018-06-11T08:45:54.093Z,3.40
2018-06-11T08:48:22.713Z,3.00
2018-06-11T08:50:50.623Z,4.10
2018-06-11T08:53:18.526Z,3.97
2018-06-11T08:55:46.175Z,4.37
2018-06-11T08:58:14.005Z,3.50
2018-06-11T09:00:41.949Z,3.47
2018-06-11T09:03:09.908Z,4.20
2018-06-11T09:05:37.918Z,3.47
2018-06-11T09:08:05.717Z,3.07
2018-06-11T09:10:33.556Z,3.50
2018-06-11T09:13:01.345Z,3.67
2018-06-11T09:15:29.112Z,4.03
2018-06-11T09:17:57.072Z,4.67
2018-06-11T09:20:24.811Z,3.67
2018-06-11T09:22:52.571Z,3.30
2018-06-11T09:25:20.448Z,3.53
2018-06-11T09:27:48.217Z,3.10
2018-06-11T09:30:16.110Z,3.90
2018-06-11T09:32:44.157Z,3.83
2018-06-11T09:35:12.056Z,4.47
2018-06-11T09:37:40.080Z,4.70
2018-06-11T09:40:08.424Z,3.80
2018-06-11T09:42:36.249Z,4.00
2018-06-11T09:45:03.989Z,3.80
2018-06-11T09:47:32.011Z,4.37
2018-06-11T09:49:59.956Z,4.10
2018-06-11T09:52:27.851Z,4.03
2018-06-11T09:54:55.640Z,4.13
2018-06-11T09:57:23.610Z,4.17
2018-06-11T09:59:51.791Z,3.80
2018-06-11T10:02:19.920Z,4.00
2018-06-11T10:04:47.827Z,3.73
2018-06-11T10:07:15.621Z,4.37
2018-06-11T10:09:43.429Z,4.30
2018-06-11T10:12:11.287Z,4.40
2018-06-11T10:14:39.086Z,4.30
2018-06-11T10:17:06.911Z,3.73
2018-06-11T10:19:34.713Z,3.57
2018-06-11T10:22:02.556Z,3.17
2018-06-11T10:24:30.345Z,3.17
2018-06-11T10:26:58.201Z,3.43
2018-06-11T10:29:26.121Z,2.57
2018-06-11T10:31:54.790Z,2.97
2018-06-11T10:34:22.701Z,4.87
2018-06-11T10:36:50.593Z,3.97
2018-06-11T10:39:18.687Z,2.40
2018-06-11T10:41:47.229Z,3.13
2018-06-11T10:44:15.100Z,2.90
2018-06-11T10:46:42.856Z,4.37
2018-06-11T10:49:10.732Z,4.37
2018-06-11T10:51:38.688Z,3.90
2018-06-11T10:54:06.697Z,3.50
2018-06-11T10:56:34.668Z,4.27
2018-06-11T10:59:02.672Z,3.30
2018-06-11T11:01:30.407Z,3.90
2018-06-11T11:03:58.315Z,3.50
2018-06-11T11:06:26.372Z,4.20
2018-06-11T11:08:54.389Z,3.93
2018-06-11T11:11:22.315Z,3.67
2018-06-11T11:13:50.169Z,4.27
2018-06-11T11:16:18.901Z,3.70
2018-06-11T11:18:47.546Z,3.60
2018-06-11T11:21:15.593Z,3.60
2018-06-11T11:23:44.049Z,3.93
2018-06-11T11:26:12.020Z,4.93
2018-06-11T11:28:39.983Z,3.90
2018-06-11T11:31:07.956Z,4.17
2018-06-11T11:33:36.689Z,4.17
2018-06-11T11:36:05.145Z,4.40
2018-06-11T11:38:33.076Z,3.60
2018-06-11T11:41:01.007Z,3.67
2018-06-11T11:43:29.063Z,4.80
2018-06-11T11:45:57.564Z,2.90
2018-06-11T11:48:25.678Z,4.50
2018-06-11T11:50:53.512Z,3.50
2018-06-11T11:53:21.548Z,3.63
2018-06-11T11:55:49.567Z,4.40
2018-06-11T11:58:18.347Z,4.63
2018-06-11T12:00:46.778Z,4.27
2018-06-11T12:03:14.709Z,4.40
2018-06-11T12:05:42.728Z,4.50
2018-06-11T12:08:11.311Z,4.07
2018-06-11T12:10:39.247Z,4.40
2018-06-11T12:13:07.184Z,3.90
2018-06-11T12:15:35.064Z,3.37
2018-06-11T12:18:03.774Z,4.67
2018-06-11T12:20:31.613Z,4.07
2018-06-11T12:22:59.315Z,3.97
2018-06-11T12:25:27.400Z,4.27
2018-06-11T12:27:55.428Z,4.50
2018-06-11T12:30:23.211Z,5.00
2018-06-11T12:32:51.033Z,4.93
2018-06-11T12:35:19.509Z,4.70
2018-06-11T12:37:47.594Z,4.57
2018-06-11T12:40:15.500Z,4.47
2018-06-11T12:42:43.443Z,4.33
2018-06-11T12:45:11.363Z,3.73
2018-06-11T12:47:39.097Z,3.97
2018-06-11T12:50:08.301Z,4.63
2018-06-11T12:52:36.348Z,3.87
2018-06-11T12:55:04.293Z,3.20
2018-06-11T12:57:32.912Z,4.10
2018-06-11T13:00:00.877Z,4.17
2018-06-11T13:02:28.871Z,4.10
2018-06-11T13:04:56.799Z,4.73
2018-06-11T13:07:24.628Z,4.53
2018-06-11T13:09:53.416Z,5.00
2018-06-11T13:12:21.975Z,3.67
2018-06-11T13:14:49.604Z,4.30
2018-06-11T13:17:17.185Z,5.00
2018-06-11T13:19:44.982Z,3.23
2018-06-11T13:22:12.837Z,3.77
2018-06-11T13:24:40.949Z,3.37
2018-06-11T13:27:09.507Z,4.07
2018-06-11T13:29:37.555Z,4.53
2018-06-11T13:32:05.474Z,5.17
2018-06-11T13:34:35.189Z,4.50
2018-06-11T13:37:03.609Z,3.37
2018-06-11T13:39:31.607Z,3.83
2018-06-11T13:42:00.193Z,3.90
2018-06-11T13:44:28.111Z,4.30
2018-06-11T13:46:56.040Z,2.33
2018-06-11T13:49:24.656Z,3.80
2018-06-11T13:51:52.605Z,3.43
2018-06-11T13:54:20.515Z,4.43
2018-06-11T13:56:48.223Z,4.00
2018-06-11T13:59:16.105Z,3.63
2018-06-11T14:01:43.900Z,3.93
2018-06-11T14:04:12.467Z,4.17
2018-06-11T14:06:40.368Z,4.40
2018-06-11T14:09:08.373Z,4.00
2018-06-11T14:11:36.329Z,4.30
2018-06-11T14:14:04.240Z,4.70
2018-06-11T14:16:32.064Z,5.10
2018-06-11T14:19:00.017Z,4.80
2018-06-11T14:21:28.009Z,3.30
2018-06-11T14:23:55.961Z,4.10
2018-06-11T14:26:23.856Z,3.23
2018-06-11T14:28:51.604Z,4.07
2018-06-11T14:31:19.832Z,4.90
2018-06-11T14:33:47.875Z,4.30
2018-06-11T14:36:15.852Z,4.40
2018-06-11T14:38:44.240Z,2.77
2018-06-11T14:41:12.297Z,3.90
2018-06-11T14:43:40.022Z,4.23
2018-06-11T14:46:08.185Z,4.50
2018-06-11T14:48:35.840Z,3.40
2018-06-11T14:51:03.688Z,3.50
2018-06-11T14:53:32.418Z,3.00
2018-06-11T14:56:00.952Z,4.87
2018-06-11T14:58:28.952Z,4.40
2018-06-11T15:00:56.774Z,4.50
2018-06-11T15:03:24.509Z,4.63
2018-06-11T15:05:52.544Z,4.20
2018-06-11T15:08:20.549Z,4.20
2018-06-11T15:10:49.119Z,3.90
2018-06-11T15:13:17.110Z,3.90
2018-06-11T15:15:44.978Z,4.40
2018-06-11T15:18:13.592Z,2.00
2018-06-11T15:20:41.665Z,4.40
2018-06-11T15:23:09.517Z,4.50
2018-06-11T15:25:37.273Z,3.60
2018-06-11T15:28:05.912Z,4.33
2018-06-11T15:30:34.397Z,4.00
2018-06-11T15:33:02.509Z,3.83
2018-06-11T15:35:30.402Z,3.73
2018-06-11T15:37:58.426Z,4.60
2018-06-11T15:40:26.332Z,4.10
2018-06-11T15:42:54.201Z,4.73
2018-06-11T15:45:22.014Z,2.47
2018-06-11T15:47:50.569Z,4.73
2018-06-11T15:50:18.463Z,4.07
2018-06-11T15:52:46.729Z,4.30
2018-06-11T15:55:14.528Z,3.47
2018-06-11T15:57:42.334Z,2.83
2018-06-11T16:00:10.188Z,4.50
2018-06-11T16:02:38.135Z,4.63
2018-06-11T16:05:06.026Z,2.50
2018-06-11T16:07:33.933Z,3.80
2018-06-11T16:10:01.783Z,4.10
2018-06-11T16:12:29.725Z,5.63
2018-06-11T16:14:57.722Z,4.00
2018-06-11T16:17:25.668Z,4.33
2018-06-11T16:19:54.289Z,4.50
2018-06-11T16:22:23.138Z,4.90
2018-06-11T16:24:51.153Z,4.43
2018-06-11T16:27:18.937Z,5.10
2018-06-11T16:29:46.650Z,4.33
2018-06-11T16:32:14.716Z,4.33
2018-06-11T16:34:42.587Z,5.23
2018-06-11T16:37:10.450Z,4.30
2018-06-11T16:39:38.345Z,1.77
2018-06-11T16:42:06.468Z,5.27
2018-06-11T16:44:34.253Z,2.27
2018-06-11T16:47:02.073Z,3.47
2018-06-11T16:49:30.039Z,4.90
2018-06-11T16:51:58.107Z,4.03
2018-06-11T16:54:25.988Z,4.60
2018-06-11T16:56:54.892Z,2.73
2018-06-11T16:59:23.453Z,5.00
2018-06-11T17:01:51.556Z,3.57
2018-06-11T17:04:19.331Z,2.00
2018-06-11T17:06:46.952Z,4.00
2018-06-11T17:09:14.478Z,4.87
2018-06-11T17:11:42.059Z,5.40
2018-06-11T17:14:10.793Z,4.43
2018-06-11T17:16:39.294Z,4.50
2018-06-11T17:19:06.952Z,3.90
2018-06-11T17:21:34.602Z,3.57
2018-06-11T17:24:02.420Z,4.93
2018-06-11T17:26:30.572Z,3.70
2018-06-11T17:28:58.678Z,5.20
2018-06-11T17:31:26.696Z,4.30
2018-06-11T17:33:54.607Z,2.93
2018-06-11T17:36:22.485Z,4.30
2018-06-11T17:38:50.569Z,3.83
2018-06-11T17:41:18.388Z,3.40
2018-06-11T17:43:46.216Z,3.93
2018-06-11T17:46:14.167Z,4.00
2018-06-11T17:48:42.136Z,4.00
2018-06-11T17:51:10.380Z,2.60
2018-06-11T17:53:38.464Z,2.80
2018-06-11T17:56:06.084Z,4.13
2018-06-11T17:58:33.720Z,3.43
2018-06-11T18:01:01.472Z,4.27
2018-06-11T18:03:29.098Z,3.00
2018-06-11T18:05:56.838Z,3.83
2018-06-11T18:08:24.828Z,4.40
2018-06-11T18:10:53.101Z,3.93
2018-06-11T18:13:21.769Z,0.97
2018-06-11T18:15:50.399Z,4.10
2018-06-11T18:18:19.231Z,4.47
2018-06-11T18:20:48.393Z,4.07
2018-06-11T18:23:16.600Z,3.80
2018-06-11T18:25:45.022Z,4.10
2018-06-11T18:28:13.363Z,4.50
2018-06-11T18:30:41.811Z,4.13
2018-06-11T18:33:10.225Z,3.47
2018-06-11T18:35:39.881Z,4.00
2018-06-11T18:38:08.836Z,3.90
2018-06-11T18:40:39.234Z,4.27
2018-06-11T18:43:09.749Z,3.20
2018-06-11T18:45:39.494Z,3.30
2018-06-11T18:48:08.959Z,3.80
2018-06-11T18:50:38.113Z,1.50
2018-06-11T18:53:07.424Z,3.70
2018-06-11T18:55:36.498Z,4.17
2018-06-11T18:58:05.486Z,4.17
2018-06-11T19:00:34.674Z,2.53
2018-06-11T19:03:04.983Z,3.73
2018-06-11T19:05:34.009Z,3.77
2018-06-11T19:08:03.757Z,3.97
2018-06-11T19:10:33.653Z,3.40
2018-06-11T19:13:04.351Z,4.10
2018-06-11T19:15:34.560Z,3.43
2018-06-11T19:18:06.079Z,4.53
2018-06-11T19:20:36.420Z,3.43
2018-06-11T19:23:08.150Z,3.20
2018-06-11T19:25:38.247Z,4.20
2018-06-11T19:28:07.272Z,4.33
2018-06-11T19:30:37.548Z,3.90
2018-06-11T19:33:07.120Z,4.03
2018-06-11T19:35:36.318Z,3.80
2018-06-11T19:38:04.833Z,4.60
2018-06-11T19:40:33.327Z,4.37
2018-06-11T19:43:01.734Z,3.90
2018-06-11T19:45:30.950Z,4.00
2018-06-11T19:48:00.419Z,4.60
2018-06-11T19:50:29.861Z,3.00
2018-06-11T19:52:58.553Z,4.63
2018-06-11T19:55:27.016Z,4.13
2018-06-11T19:57:55.781Z,4.07
2018-06-11T20:00:24.296Z,4.07
2018-06-11T20:02:52.940Z,3.83
2018-06-11T20:05:21.426Z,3.73
2018-06-11T20:07:51.741Z,3.70
2018-06-11T20:10:20.968Z,3.90
2018-06-11T20:12:52.123Z,2.07
2018-06-11T20:15:21.270Z,3.10
2018-06-11T20:17:52.351Z,3.57
2018-06-11T20:20:21.496Z,3.40
2018-06-11T20:22:52.055Z,2.77
2018-06-11T20:25:22.273Z,3.37
2018-06-11T20:27:51.309Z,3.30
2018-06-11T20:30:20.345Z,3.47
2018-06-11T20:32:49.941Z,3.17
2018-06-11T20:35:19.204Z,3.23
2018-06-11T20:37:50.466Z,3.20
2018-06-11T20:40:18.615Z,3.10
2018-06-11T20:42:46.412Z,2.97
2018-06-11T20:45:14.212Z,3.07
2018-06-11T20:47:42.187Z,3.00
2018-06-11T20:50:10.147Z,2.40
2018-06-11T20:52:37.972Z,3.17
2018-06-11T20:55:05.977Z,2.90
2018-06-11T20:57:33.639Z,2.97
2018-06-11T21:00:01.421Z,2.30
2018-06-11T21:02:29.399Z,2.10
2018-06-11T21:04:57.386Z,2.40
2018-06-11T21:07:25.376Z,2.30
2018-06-11T21:09:53.206Z,1.40
2018-06-11T21:12:20.957Z,1.77
2018-06-11T21:14:49.348Z,2.23
2018-06-11T21:17:17.127Z,1.53
2018-06-11T21:19:45.010Z,2.27
2018-06-11T21:22:13.092Z,2.10
2018-06-11T21:24:40.926Z,2.00
2018-06-11T21:27:08.896Z,2.47
2018-06-11T21:29:37.684Z,2.33
2018-06-11T21:32:05.381Z,2.13
2018-06-11T21:34:33.256Z,2.77
2018-06-11T21:37:01.005Z,1.70
2018-06-11T21:39:28.876Z,2.07
2018-06-11T21:41:56.688Z,1.60
2018-06-11T21:44:24.680Z,0.93
2018-06-11T21:46:52.526Z,1.90
2018-06-11T21:49:20.827Z,1.90
2018-06-11T21:51:48.756Z,1.90
2018-06-11T21:54:16.596Z,2.27
2018-06-11T21:56:44.378Z,2.23
2018-06-11T21:59:12.037Z,1.83
2018-06-11T22:01:39.880Z,1.73
2018-06-11T22:04:07.761Z,1.77
2018-06-11T22:06:35.492Z,1.70
2018-06-11T22:09:03.714Z,2.50
2018-06-11T22:11:31.768Z,2.43
2018-06-11T22:13:59.569Z,1.87
2018-06-11T22:16:28.022Z,2.17
2018-06-11T22:18:55.968Z,2.37
2018-06-11T22:21:24.591Z,2.27
2018-06-11T22:23:52.532Z,2.30
2018-06-11T22:26:20.543Z,1.27
2018-06-11T22:28:48.641Z,2.20
2018-06-11T22:31:17.103Z,2.63
2018-06-11T22:33:45.664Z,2.23
2018-06-11T22:36:13.232Z,2.30
2018-06-11T22:38:40.787Z,2.60
2018-06-11T22:41:08.384Z,2.00
2018-06-11T22:43:35.896Z,1.80
2018-06-11T22:46:03.506Z,1.70
2018-06-11T22:48:31.088Z,2.37
2018-06-11T22:50:58.621Z,3.10
2018-06-11T22:53:26.181Z,1.80
2018-06-11T22:55:53.730Z,1.93
2018-06-11T22:58:21.310Z,2.50
2018-06-11T23:00:48.832Z,1.70
2018-06-11T23:03:16.424Z,2.53
2018-06-11T23:05:43.982Z,2.00
2018-06-11T23:08:11.546Z,1.97
2018-06-11T23:10:39.073Z,2.27
2018-06-11T23:13:06.663Z,2.10
2018-06-11T23:15:34.376Z,1.90
2018-06-11T23:18:01.960Z,1.00
2018-06-11T23:20:29.520Z,1.53
2018-06-11T23:22:57.150Z,1.73
2018-06-11T23:25:24.732Z,1.90
2018-06-11T23:27:52.333Z,2.37
2018-06-11T23:30:19.846Z,1.50
2018-06-11T23:32:47.356Z,1.60
2018-06-11T23:35:14.920Z,1.40
2018-06-11T23:37:42.440Z,2.20
2018-06-11T23:40:10.022Z,2.00
2018-06-11T23:42:48.436Z,2.10
2018-06-11T23:48:10.759Z,2.53
2018-06-11T23:50:38.677Z,1.70
2018-06-11T23:53:07.229Z,2.43
2018-06-11T23:55:35.123Z,2.20
2018-06-11T23:58:03.674Z,1.53
